Terminal Aerodrome Forecast
Issued by NWS

Home | Current Version | Previous Version | Text Only | Print | Product List | Glossary On
Versions: 1 2 3 4 5 6 7 8 9 10 11 12 13 14 15 16 17 18 19 20
000
FTUS41 KBGM 302228 AAB
TAFELM
TAF AMD
KELM 302228Z 3022/3118 21012KT P6SM FEW050 SCT100
      TEMPO 3022/3024 24015G30KT 2SM TSRA BR BKN020CB
     FM310300 21004KT P6SM BKN100
     FM310600 26004KT 1 1/2SM -RA BR OVC015
     FM310900 02006KT 4SM -RA BR OVC007
     FM311400 02008KT 6SM -RA BR OVC015=

USA.gov is the U.S. government's official web portal to all federal, state and local government web resources and services.